Time;durP1;ratioP1;P1;durP2;ratioP2;P2;SDS_P1;SDS_P2;PMS_P1;PMS_P2;Temp;Humidity;BMP_temperature;BMP_pressure;BME280_temperature;BME280_humidity;BME280_pressure;Samples;Min_cycle;Max_cycle;Signal;HPM_P1;HPM_P2
2022/10/05 00:00:47;;;;;;;4.53;3.13;;;;;;;22.86;44.18;95812.22;5008955;28;20057;-66
2022/10/05 00:03:13;;;;;;;4.28;3.17;;;;;;;22.62;44.51;95776.44;5028511;28;20061;-75
2022/10/05 00:05:38;;;;;;;3.92;2.88;;;;;;;22.46;44.69;95744.41;5029541;28;20036;-72
2022/10/05 00:08:22;;;;;;;3.60;3.00;;;;;;;22.72;44.51;95791.31;5029038;28;20503;-75
2022/10/05 00:10:48;;;;;;;3.63;2.90;;;;;;;22.92;44.66;95816.47;4995466;28;20091;-72
2022/10/05 00:13:14;;;;;;;3.72;2.80;;;;;;;22.91;44.12;95814.97;5021800;28;20045;-67
2022/10/05 00:15:39;;;;;;;3.83;2.88;;;;;;;22.24;44.54;95719.78;5027181;28;20073;-74
2022/10/05 00:18:13;;;;;;;4.47;3.00;;;;;;;22.90;44.26;95808.78;5028909;28;20032;-74
2022/10/05 00:20:39;;;;;;;4.38;3.00;;;;;;;22.28;44.33;95725.72;5020486;28;20120;-72
2022/10/05 00:23:07;;;;;;;3.90;2.75;;;;;;;22.44;44.83;95744.16;5028351;28;20191;-72
2022/10/05 00:25:32;;;;;;;3.58;2.75;;;;;;;22.45;44.24;95740.16;5011001;28;20041;-74
2022/10/05 00:27:58;;;;;;;4.00;2.90;;;;;;;22.89;44.35;95807.28;5028202;28;20041;-74
2022/10/05 00:30:25;;;;;;;4.45;3.03;;;;;;;22.33;44.45;95743.31;5006053;28;20038;-74
2022/10/05 00:32:51;;;;;;;3.25;2.72;;;;;;;22.65;44.55;95778.91;5011180;28;20017;-71
2022/10/05 00:35:17;;;;;;;4.00;2.72;;;;;;;22.56;44.69;95762.78;5027597;28;20037;-70
2022/10/05 00:37:43;;;;;;;4.03;2.65;;;;;;;22.14;44.30;95710.25;5025205;28;20041;-66
2022/10/05 00:40:37;;;;;;;3.47;2.60;;;;;;;22.86;44.81;95806.78;5004008;28;20041;-67
2022/10/05 00:43:12;;;;;;;3.53;2.70;;;;;;;22.86;44.43;95812.22;4990708;28;20038;-67
2022/10/05 00:46:06;;;;;;;4.32;2.40;;;;;;;22.86;44.40;95812.22;5016465;28;20034;-64
2022/10/05 00:49:14;;;;;;;3.63;2.70;;;;;;;22.86;44.73;95812.22;4981995;28;20535;-71
2022/10/05 00:51:39;;;;;;;3.97;2.90;;;;;;;22.86;44.77;95818.41;5014676;28;20037;-70
2022/10/05 00:54:23;;;;;;;3.70;2.60;;;;;;;22.84;44.29;95822.84;5028832;28;20040;-70
2022/10/05 00:57:08;;;;;;;4.30;2.80;;;;;;;22.70;44.65;95799.97;5010298;28;20052;-66
2022/10/05 00:59:58;;;;;;;3.58;2.85;;;;;;;22.87;44.29;95824.59;5010947;28;20034;-66
2022/10/05 01:02:29;;;;;;;4.15;2.75;;;;;;;22.87;44.53;95832.75;5001093;28;20097;-71
2022/10/05 01:05:11;;;;;;;3.72;2.70;;;;;;;22.84;44.68;95833.72;4995681;28;20460;-68
2022/10/05 01:07:50;;;;;;;3.30;2.53;;;;;;;22.83;44.51;95834.97;4998157;28;20093;-69
2022/10/05 01:10:27;;;;;;;3.83;2.78;;;;;;;22.84;44.53;95841.91;5010279;28;20049;-71
2022/10/05 01:13:06;;;;;;;3.38;2.80;;;;;;;22.57;44.73;95804.34;5027756;28;20049;-67
2022/10/05 01:15:37;;;;;;;4.82;3.10;;;;;;;22.82;44.55;95838.94;5009710;28;20136;-68
2022/10/05 01:18:15;;;;;;;4.00;2.88;;;;;;;22.82;44.75;95845.09;4994742;28;20048;-72
2022/10/05 01:21:04;;;;;;;4.13;2.72;;;;;;;22.79;44.45;95834.44;5023828;28;20132;-66
2022/10/05 01:23:56;;;;;;;4.45;2.85;;;;;;;22.77;44.92;95836.91;5024451;28;20052;-67
2022/10/05 01:26:30;;;;;;;4.10;2.60;;;;;;;22.79;44.76;95839.91;5023897;28;20052;-69
2022/10/05 01:29:28;;;;;;;4.05;2.75;;;;;;;22.77;44.78;95831.47;5009950;28;20111;-70
2022/10/05 01:32:02;;;;;;;3.55;2.50;;;;;;;22.77;45.06;95847.81;4989307;28;20135;-73
2022/10/05 01:34:34;;;;;;;3.15;2.50;;;;;;;22.78;44.78;95854.72;5026546;28;20068;-66
2022/10/05 01:37:35;;;;;;;3.55;2.45;;;;;;;22.78;44.44;95852.00;5009394;28;20136;-73
2022/10/05 01:40:25;;;;;;;3.35;2.33;;;;;;;22.76;44.90;95854.47;4954815;28;20051;-70
2022/10/05 01:43:23;;;;;;;3.70;2.70;;;;;;;22.77;44.69;95869.59;5003169;28;20049;-65
2022/10/05 01:45:59;;;;;;;4.35;2.60;;;;;;;22.23;44.71;95789.00;4995712;28;20144;-69
2022/10/05 01:49:06;;;;;;;4.13;3.00;;;;;;;22.52;44.72;95837.72;5006525;28;20503;-70
2022/10/05 01:51:58;;;;;;;3.97;2.47;;;;;;;22.77;45.12;95875.03;4991197;28;20505;-67
2022/10/05 01:54:28;;;;;;;3.55;2.33;;;;;;;22.74;44.62;95876.00;5006034;28;20038;-74
2022/10/05 01:57:32;;;;;;;3.95;2.58;;;;;;;22.76;45.15;95885.16;5002596;28;20135;-67
2022/10/05 02:00:10;;;;;;;3.35;2.58;;;;;;;22.25;45.03;95813.00;5004602;28;20112;-70
2022/10/05 02:02:47;;;;;;;3.60;2.63;;;;;;;22.74;44.59;95886.91;5003750;28;20131;-69
2022/10/05 02:05:25;;;;;;;3.17;2.60;;;;;;;22.27;45.16;95819.47;5007019;28;20041;-66
2022/10/05 02:08:25;;;;;;;3.10;2.45;;;;;;;22.32;44.93;95835.09;4990803;28;20128;-65
2022/10/05 02:11:03;;;;;;;3.33;2.55;;;;;;;22.65;45.02;95889.81;4984045;28;20045;-68
2022/10/05 02:13:49;;;;;;;3.75;2.58;;;;;;;22.47;45.02;95857.47;5006005;28;20072;-74
2022/10/05 02:16:20;;;;;;;3.17;2.35;;;;;;;22.67;45.23;95890.06;5000028;28;20038;-70
2022/10/05 02:18:51;;;;;;;3.33;2.55;;;;;;;22.69;44.84;95890.31;5003706;28;20042;-73
2022/10/05 02:21:17;;;;;;;4.95;2.30;;;;;;;22.06;45.14;95804.41;4978013;28;20070;-74
2022/10/05 02:23:42;;;;;;;4.28;2.72;;;;;;;22.17;45.04;95829.00;4984577;28;20034;-66
2022/10/05 02:26:10;;;;;;;3.58;2.78;;;;;;;22.14;45.24;95824.50;5003871;28;20061;-68
2022/10/05 02:28:46;;;;;;;3.17;2.35;;;;;;;22.59;44.97;95886.28;5007008;28;20042;-71
2022/10/05 02:31:14;;;;;;;3.30;2.30;;;;;;;22.34;45.33;95843.50;4985180;28;20085;-71
2022/10/05 02:33:39;;;;;;;3.75;2.55;;;;;;;22.43;45.15;95859.66;4989554;28;20140;-73
2022/10/05 02:36:34;;;;;;;2.72;2.28;;;;;;;22.62;45.17;95896.22;5006230;28;20141;-73
2022/10/05 02:39:02;;;;;;;3.03;2.47;;;;;;;22.63;45.24;95892.25;5003476;28;20046;-70
2022/10/05 02:41:47;;;;;;;3.85;2.50;;;;;;;22.62;44.89;95896.22;5012698;28;20037;-69
2022/10/05 02:44:27;;;;;;;3.35;2.35;;;;;;;22.59;45.10;95891.72;5026596;28;20357;-69
2022/10/05 02:47:11;;;;;;;4.03;2.40;;;;;;;22.59;45.18;95886.28;5025928;28;20034;-74
2022/10/05 02:49:55;;;;;;;3.80;2.47;;;;;;;22.60;45.19;95891.25;5026635;28;20080;-71
2022/10/05 02:52:26;;;;;;;4.28;2.78;;;;;;;22.32;45.41;95851.41;5016350;28;20048;-72
2022/10/05 02:55:29;;;;;;;4.35;2.63;;;;;;;22.61;45.11;95883.81;5002125;28;20124;-73
2022/10/05 02:58:14;;;;;;;3.30;2.30;;;;;;;22.60;44.93;95887.75;5007703;28;20065;-74
2022/10/05 03:00:48;;;;;;;2.92;2.30;;;;;;;22.36;45.28;95857.41;4996853;28;20042;-69
2022/10/05 03:03:19;;;;;;;4.15;2.50;;;;;;;22.62;45.08;95890.75;4982261;28;20026;-74
2022/10/05 03:05:44;;;;;;;2.97;2.25;;;;;;;22.62;45.26;95902.38;4999146;28;20507;-73
2022/10/05 03:08:32;;;;;;;3.88;2.40;;;;;;;22.56;44.86;95892.69;5024790;28;20038;-70
2022/10/05 03:11:34;;;;;;;4.88;2.47;;;;;;;22.63;45.04;95908.56;5005184;28;20041;-73
2022/10/05 03:14:29;;;;;;;3.20;2.20;;;;;;;22.38;45.03;95865.81;5008636;28;20094;-73
2022/10/05 03:17:14;;;;;;;3.42;2.20;;;;;;;22.58;44.95;95901.13;5010378;28;20096;-74
2022/10/05 03:20:16;;;;;;;3.08;2.40;;;;;;;22.55;45.21;95902.81;5019146;28;20091;-72
2022/10/05 03:22:58;;;;;;;4.25;2.65;;;;;;;22.04;45.14;95825.91;5002633;28;20873;-73
2022/10/05 03:25:32;;;;;;;3.33;2.25;;;;;;;22.55;45.33;95907.53;5003928;28;20049;-74
2022/10/05 03:28:07;;;;;;;3.20;2.33;;;;;;;22.55;45.39;95907.53;5019798;28;20030;-71
2022/10/05 03:30:52;;;;;;;3.17;2.25;;;;;;;22.21;45.02;95861.44;5009595;28;20499;-73
2022/10/05 03:33:30;;;;;;;2.90;2.45;;;;;;;22.56;45.31;95914.47;5029281;28;20397;-70
2022/10/05 03:35:58;;;;;;;3.35;2.45;;;;;;;22.60;45.15;95925.88;5029513;28;20032;-71
2022/10/05 03:38:45;;;;;;;3.35;2.22;;;;;;;22.57;45.17;95926.84;5028909;28;20431;-72
2022/10/05 03:41:27;;;;;;;2.28;2.08;;;;;;;22.22;45.31;95884.72;5020613;28;20537;-68
2022/10/05 03:44:24;;;;;;;3.40;2.50;;;;;;;22.54;45.28;95935.97;4997014;28;20518;-66
2022/10/05 03:47:11;;;;;;;3.25;2.50;;;;;;;22.54;45.27;95944.13;5029206;28;20514;-73
2022/10/05 03:49:58;;;;;;;3.35;2.53;;;;;;;22.52;45.09;95941.16;5016065;28;20037;-72
2022/10/05 03:52:30;;;;;;;3.15;2.33;;;;;;;21.86;45.09;95852.66;5022398;28;20037;-69
2022/10/05 03:55:00;;;;;;;3.17;2.30;;;;;;;22.22;45.25;95904.50;5030043;28;20045;-72
2022/10/05 03:57:27;;;;;;;3.45;2.38;;;;;;;21.84;45.03;95854.34;5011235;28;20547;-72
2022/10/05 04:00:11;;;;;;;3.28;2.30;;;;;;;22.14;45.21;95906.13;5011214;28;20025;-70
2022/10/05 04:03:03;;;;;;;3.30;2.42;;;;;;;22.05;45.37;95892.69;5007159;28;20108;-73
2022/10/05 04:05:37;;;;;;;3.35;2.30;;;;;;;22.22;45.17;95920.81;5028539;28;20061;-72
2022/10/05 04:08:08;;;;;;;3.60;2.65;;;;;;;21.61;45.14;95836.31;5010902;28;20044;-71
2022/10/05 04:10:45;;;;;;;3.95;2.33;;;;;;;22.29;45.40;95928.56;5028846;28;20033;-73
2022/10/05 04:13:11;;;;;;;4.38;2.38;;;;;;;22.62;45.42;95972.44;5010218;28;20038;-71
2022/10/05 04:15:43;;;;;;;3.95;2.55;;;;;;;22.59;45.26;95957.06;5024823;28;20065;-65
2022/10/05 04:18:30;;;;;;;3.00;2.67;;;;;;;22.57;45.70;95959.50;5009625;28;20108;-65
2022/10/05 04:21:05;;;;;;;2.90;2.30;;;;;;;22.03;45.69;95884.25;5023461;28;20552;-72
2022/10/05 04:23:49;;;;;;;3.83;2.20;;;;;;;22.56;45.95;95964.22;5008380;28;20033;-67
2022/10/05 04:26:21;;;;;;;3.17;2.60;;;;;;;22.62;45.59;95978.63;5010069;28;20132;-68
2022/10/05 04:29:01;;;;;;;3.05;2.30;;;;;;;22.59;45.48;95973.41;4991509;28;20041;-69
2022/10/05 04:31:43;;;;;;;3.05;2.28;;;;;;;22.32;45.53;95933.03;4988304;28;20045;-67
2022/10/05 04:34:36;;;;;;;3.63;2.42;;;;;;;22.40;45.80;95938.81;5024711;28;20048;-70
2022/10/05 04:37:04;;;;;;;3.00;2.45;;;;;;;22.28;45.48;95926.31;4999116;28;20048;-73
2022/10/05 04:39:36;;;;;;;2.85;2.20;;;;;;;22.64;45.87;95989.03;4990602;28;20045;-72
2022/10/05 04:42:31;;;;;;;3.13;2.30;;;;;;;22.63;45.77;95990.25;5006782;28;20471;-68
2022/10/05 04:45:13;;;;;;;3.97;2.58;;;;;;;22.66;45.64;95992.00;5022160;28;20784;-70
2022/10/05 04:47:57;;;;;;;2.65;2.00;;;;;;;22.66;45.71;96005.63;5024689;28;20143;-68
2022/10/05 04:50:35;;;;;;;3.10;2.28;;;;;;;22.39;45.74;95970.72;5023086;28;20029;-72
2022/10/05 04:53:07;;;;;;;3.20;2.40;;;;;;;22.16;45.73;95936.31;4990430;28;20060;-67
2022/10/05 04:55:52;;;;;;;2.85;2.20;;;;;;;22.65;45.69;96015.03;5008179;28;20041;-70
2022/10/05 04:58:44;;;;;;;3.15;2.40;;;;;;;22.67;45.93;96009.84;5006750;28;20042;-72
2022/10/05 05:01:48;;;;;;;2.85;2.20;;;;;;;22.67;45.73;96001.69;5018214;28;20042;-69
2022/10/05 05:04:34;;;;;;;2.92;2.20;;;;;;;22.68;46.01;96003.19;5010852;28;20038;-70
2022/10/05 05:07:28;;;;;;;3.22;2.10;;;;;;;22.69;45.89;95999.22;5023646;28;21221;-68
2022/10/05 05:10:32;;;;;;;3.08;2.20;;;;;;;22.68;45.68;95992.28;4995638;28;20072;-74
2022/10/05 05:13:04;;;;;;;4.25;2.40;;;;;;;22.88;45.76;96000.41;4984679;28;20053;-74
2022/10/05 05:15:32;;;;;;;3.80;2.15;;;;;;;22.82;45.85;95996.88;5023207;28;20049;-75
2022/10/05 05:18:50;;;;;;;2.67;2.30;;;;;;;22.64;45.90;95980.84;5024043;28;20120;-78
2022/10/05 05:21:31;;;;;;;4.18;2.25;;;;;;;22.83;45.97;96003.81;4989104;28;20049;-74
2022/10/05 05:24:01;;;;;;;3.63;2.17;;;;;;;22.87;45.74;95998.88;5023626;28;20124;-71
2022/10/05 05:26:53;;;;;;;4.03;2.42;;;;;;;23.02;45.97;96011.94;5006736;28;20481;-73
2022/10/05 05:29:23;;;;;;;4.13;2.42;;;;;;;22.97;47.78;96004.47;4994781;28;20038;-69
2022/10/05 05:31:51;;;;;;;3.25;2.20;;;;;;;22.83;47.31;95982.03;5023346;28;20055;-77
2022/10/05 05:34:31;;;;;;;3.92;2.05;;;;;;;22.93;47.60;96009.38;5023170;28;20037;-75
2022/10/05 05:37:14;;;;;;;4.03;2.20;;;;;;;22.52;48.14;95941.16;5022269;28;20099;-71
2022/10/05 05:40:04;;;;;;;3.90;2.47;;;;;;;22.97;47.80;96011.88;5024514;28;20051;-73
2022/10/05 05:42:35;;;;;;;2.85;2.10;;;;;;;22.82;48.20;95980.53;5021979;28;20056;-75
2022/10/05 05:45:37;;;;;;;3.60;1.98;;;;;;;22.63;48.51;95973.91;5005132;28;20165;-77
2022/10/05 05:48:11;;;;;;;4.65;2.63;;;;;;;22.26;48.27;95912.47;5004986;28;20033;-73
2022/10/05 05:50:53;;;;;;;2.95;2.30;;;;;;;23.14;48.03;96023.69;4990270;28;20127;-72
2022/10/05 05:53:26;;;;;;;4.50;2.20;;;;;;;23.13;47.43;96022.94;5004611;28;20045;-73
2022/10/05 05:56:11;;;;;;;2.90;2.20;;;;;;;22.52;47.62;95941.16;4990790;28;20037;-73
2022/10/05 05:58:40;;;;;;;5.45;2.42;;;;;;;23.08;48.15;96033.81;5006391;28;20036;-70
2022/10/05 06:01:13;;;;;;;3.03;2.00;;;;;;;22.78;47.52;95985.44;5019997;28;20046;-75
2022/10/05 06:03:42;;;;;;;3.22;2.20;;;;;;;23.06;47.71;96023.38;5003565;28;20037;-74
2022/10/05 06:06:13;;;;;;;2.70;2.00;;;;;;;23.18;46.99;96029.66;4985877;28;20674;-72
2022/10/05 06:08:44;;;;;;;3.72;2.00;;;;;;;23.17;47.21;96028.91;4989101;28;20064;-65
2022/10/05 06:11:22;;;;;;;3.13;2.30;;;;;;;23.32;47.00;96034.22;4986081;28;20142;-64
2022/10/05 06:13:48;;;;;;;2.38;1.90;;;;;;;22.98;46.58;95999.78;5004652;28;20081;-65
2022/10/05 06:16:22;;;;;;;3.83;2.20;;;;;;;23.15;46.53;96036.84;5020865;28;20041;-67
2022/10/05 06:18:56;;;;;;;4.13;2.35;;;;;;;22.99;46.67;96029.25;5023031;28;20041;-66
2022/10/05 06:21:27;;;;;;;3.50;2.10;;;;;;;23.15;46.93;96053.19;4994788;28;20097;-66
2022/10/05 06:24:07;;;;;;;3.58;2.10;;;;;;;22.76;46.58;96012.41;5020100;28;20030;-65
2022/10/05 06:26:52;;;;;;;3.80;2.17;;;;;;;22.58;46.66;95988.97;5006074;28;20030;-65
2022/10/05 06:29:19;;;;;;;2.55;1.95;;;;;;;22.85;46.38;96017.69;5004821;28;20778;-66
2022/10/05 06:32:00;;;;;;;2.88;2.10;;;;;;;23.08;46.60;96074.66;4988454;28;20042;-67
2022/10/05 06:34:41;;;;;;;2.90;2.15;;;;;;;22.95;46.61;96069.56;5006537;28;20042;-67
2022/10/05 06:37:13;;;;;;;4.50;2.28;;;;;;;22.98;46.35;96065.88;5005932;28;20037;-67
2022/10/05 06:39:48;;;;;;;3.33;2.10;;;;;;;22.67;46.31;96023.47;5002533;28;20148;-67
2022/10/05 06:42:36;;;;;;;4.38;2.30;;;;;;;22.93;45.96;96069.31;5000273;28;20052;-68
2022/10/05 06:45:23;;;;;;;3.38;2.38;;;;;;;22.99;46.09;96083.00;4995465;28;20036;-67
2022/10/05 06:47:51;;;;;;;3.38;2.33;;;;;;;22.45;46.08;96001.44;5007686;28;20121;-68
2022/10/05 06:50:41;;;;;;;3.85;2.38;;;;;;;23.00;46.35;96096.13;4989974;28;20731;-67
2022/10/05 06:53:23;;;;;;;3.75;2.30;;;;;;;22.98;46.57;96103.28;5008468;28;20049;-67
2022/10/05 06:55:59;;;;;;;2.85;2.10;;;;;;;23.01;46.05;96097.63;5010271;28;20045;-66
2022/10/05 06:58:49;;;;;;;2.67;2.03;;;;;;;22.47;46.13;96020.78;5008140;28;20064;-68
2022/10/05 07:01:51;;;;;;;3.08;2.40;;;;;;;23.03;46.21;96111.53;5024105;28;20113;-67
2022/10/05 07:04:26;;;;;;;3.30;2.42;;;;;;;22.97;45.74;96108.00;5018640;28;20053;-67
2022/10/05 07:06:54;;;;;;;3.45;2.30;;;;;;;23.00;46.11;96090.69;5025545;28;20508;-68
2022/10/05 07:09:29;;;;;;;3.95;2.40;;;;;;;22.99;45.82;96091.91;5021534;28;20274;-69
2022/10/05 07:12:37;;;;;;;3.10;2.20;;;;;;;22.89;45.66;96079.63;5009681;28;20074;-67
2022/10/05 07:15:28;;;;;;;4.22;2.47;;;;;;;23.00;45.69;96085.25;5026473;28;20080;-67
2022/10/05 07:18:21;;;;;;;4.20;2.13;;;;;;;23.08;45.76;96085.56;4990485;28;20061;-68
2022/10/05 07:20:55;;;;;;;3.60;2.58;;;;;;;22.98;45.64;96076.78;5027439;28;20492;-65
2022/10/05 07:23:24;;;;;;;3.42;2.30;;;;;;;23.06;45.63;96094.22;4992071;28;20056;-64
2022/10/05 07:26:05;;;;;;;3.60;2.30;;;;;;;22.69;45.48;96042.78;5023046;28;20041;-65
2022/10/05 07:29:12;;;;;;;3.47;2.45;;;;;;;22.98;45.69;96084.97;4989872;28;20034;-65
2022/10/05 07:31:48;;;;;;;4.55;2.25;;;;;;;23.01;45.58;96081.28;5010045;28;20149;-67
2022/10/05 07:34:34;;;;;;;3.05;2.38;;;;;;;22.37;45.76;95994.94;5006606;28;20088;-67
2022/10/05 07:40:29;;;;;;;2.92;2.28;;;;;;;23.04;45.39;96085.75;4994368;28;20079;-68
2022/10/05 07:42:59;;;;;;;3.00;2.03;;;;;;;23.03;45.68;96084.28;4975634;28;20053;-69
2022/10/05 07:45:45;;;;;;;3.35;2.10;;;;;;;22.98;45.73;96082.22;5009769;28;20782;-69
2022/10/05 07:48:13;;;;;;;4.10;2.30;;;;;;;23.09;45.27;96090.53;5009062;28;20302;-68
2022/10/05 07:50:41;;;;;;;2.95;2.30;;;;;;;23.01;45.84;96086.72;5020215;28;20025;-68
2022/10/05 07:53:14;;;;;;;3.45;2.33;;;;;;;23.08;45.26;96086.31;5026830;28;20445;-69
2022/10/05 07:55:46;;;;;;;4.30;2.40;;;;;;;23.13;45.50;96080.16;5027555;28;20053;-72
2022/10/05 07:58:20;;;;;;;3.15;2.17;;;;;;;23.17;45.07;96094.31;5001494;28;20039;-74
2022/10/05 08:00:46;;;;;;;2.92;2.17;;;;;;;23.09;45.27;96085.09;5026182;28;20094;-75
2022/10/05 08:03:41;;;;;;;4.47;2.58;;;;;;;22.71;45.50;96024.00;5032999;28;20095;-76
2022/10/05 08:06:10;;;;;;;3.25;2.30;;;;;;;23.13;45.03;96096.50;5003193;28;20230;-76
2022/10/05 08:08:57;;;;;;;4.10;2.30;;;;;;;23.17;45.62;96099.75;4981007;28;20424;-74
2022/10/05 08:11:41;;;;;;;3.50;2.47;;;;;;;22.78;45.24;96040.66;5002877;28;20045;-76
2022/10/05 08:14:30;;;;;;;3.80;2.50;;;;;;;23.09;45.36;96093.25;5014637;28;20095;-69
2022/10/05 08:16:56;;;;;;;2.83;2.20;;;;;;;22.77;45.29;96032.97;5029806;28;20116;-70
2022/10/05 08:19:32;;;;;;;3.30;2.17;;;;;;;22.90;44.82;96056.63;4996194;28;20491;-68
2022/10/05 08:22:02;;;;;;;2.63;2.22;;;;;;;23.18;45.27;96106.69;5022636;28;20081;-69
2022/10/05 08:24:54;;;;;;;3.58;2.60;;;;;;;22.68;45.30;96030.41;5024306;28;20041;-71
2022/10/05 08:27:37;;;;;;;3.13;2.30;;;;;;;22.99;45.33;96072.84;4985137;28;20042;-74
2022/10/05 08:30:04;;;;;;;3.63;2.80;;;;;;;23.14;45.01;96100.72;4988480;28;20026;-69
2022/10/05 08:32:54;;;;;;;7.60;2.50;;;;;;;23.19;44.95;96108.19;5024528;28;20045;-68
2022/10/05 08:35:42;;;;;;;3.85;2.42;;;;;;;23.28;44.65;96110.03;5010282;28;20488;-69
2022/10/05 08:38:30;;;;;;;5.05;3.10;;;;;;;22.07;41.82;96124.13;4999600;28;20053;-68
2022/10/05 08:41:14;;;;;;;4.88;2.97;;;;;;;21.51;41.77;96114.91;5009123;28;20045;-70
2022/10/05 08:43:49;;;;;;;5.07;3.00;;;;;;;22.12;42.03;96115.31;5025000;28;20042;-72
2022/10/05 08:46:22;;;;;;;5.13;2.42;;;;;;;22.60;41.43;96105.53;5013872;28;20038;-72
2022/10/05 08:49:03;;;;;;;4.85;2.60;;;;;;;22.69;40.62;96102.69;5020906;28;20128;-70
2022/10/05 08:51:56;;;;;;;4.20;2.70;;;;;;;22.82;40.40;96100.38;5025147;28;20037;-73
2022/10/05 08:54:45;;;;;;;3.85;2.88;;;;;;;22.80;40.32;96094.66;5026635;28;20138;-69
2022/10/05 08:57:16;;;;;;;4.50;2.70;;;;;;;22.79;40.40;96098.59;5010053;28;20052;-71
2022/10/05 09:00:19;;;;;;;5.57;2.65;;;;;;;22.80;39.82;96097.38;5022912;28;20128;-71
2022/10/05 09:03:24;;;;;;;4.65;3.08;;;;;;;22.74;38.76;96061.16;5017080;28;20042;-69
2022/10/05 09:05:49;;;;;;;6.68;3.25;;;;;;;22.88;39.48;96103.88;5024931;28;20170;-69
2022/10/05 09:08:24;;;;;;;5.50;2.63;;;;;;;22.79;40.28;96112.22;5020735;28;20029;-67
2022/10/05 09:10:54;;;;;;;2.97;2.30;;;;;;;22.09;40.31;96002.03;5007573;28;20056;-69
2022/10/05 09:13:19;;;;;;;;;;;;;;;22.84;39.53;96104.13;5007251;28;20042;-68
2022/10/05 09:15:53;;;;;;;4.07;2.00;;;;;;;22.71;40.44;96100.25;5026657;28;19921;-68
2022/10/05 09:18:46;;;;;;;4.10;2.88;;;;;;;22.84;39.53;96104.13;5024835;28;20048;-69
2022/10/05 09:21:27;;;;;;;4.20;2.55;;;;;;;22.85;40.18;96110.28;5012872;28;20064;-68
2022/10/05 09:24:12;;;;;;;4.22;2.35;;;;;;;22.97;40.00;96102.56;5025757;28;20079;-68
2022/10/05 09:26:57;;;;;;;9.65;3.75;;;;;;;23.03;39.45;96097.13;5007380;28;20029;-68
2022/10/05 09:29:39;;;;;;;9.48;4.25;;;;;;;22.85;39.23;96066.72;5006159;28;20056;-68
2022/10/05 09:32:33;;;;;;;5.72;3.47;;;;;;;22.93;39.41;96055.69;5005765;28;20042;-68
2022/10/05 09:35:26;;;;;;;5.72;3.30;;;;;;;23.30;39.07;96097.38;5022900;28;20043;-69
2022/10/05 09:38:26;;;;;;;5.35;3.25;;;;;;;22.77;38.68;96036.44;5007028;28;20127;-69
2022/10/05 09:41:29;;;;;;;4.20;2.72;;;;;;;23.45;39.45;96130.72;4989796;28;20042;-70
2022/10/05 09:43:55;;;;;;;5.13;2.80;;;;;;;23.58;39.01;96101.09;5019075;28;20491;-69
2022/10/05 09:46:44;;;;;;;5.57;2.80;;;;;;;23.66;38.97;96096.72;5023764;28;20053;-70
2022/10/05 09:49:34;;;;;;;4.95;2.80;;;;;;;23.58;39.23;96107.28;5006768;28;20085;-70
2022/10/05 09:52:38;;;;;;;6.15;2.60;;;;;;;23.61;39.35;96105.59;5003682;28;20532;-69
2022/10/05 09:55:39;;;;;;;6.20;2.38;;;;;;;23.70;39.02;96103.44;5021559;28;20037;-69
2022/10/05 09:58:28;;;;;;;5.50;2.40;;;;;;;23.78;38.82;96104.53;4992931;28;20061;-69
2022/10/05 10:01:05;;;;;;;4.50;2.13;;;;;;;23.67;39.07;96100.97;5021576;28;20045;-70
2022/10/05 10:03:52;;;;;;;4.30;2.25;;;;;;;23.05;39.34;96038.22;5012637;28;20571;-70
2022/10/05 10:06:58;;;;;;;4.47;2.33;;;;;;;23.53;39.40;96099.09;5010681;28;20117;-69
2022/10/05 10:09:51;;;;;;;5.25;2.20;;;;;;;23.55;38.95;96096.63;4984108;28;20045;-70
2022/10/05 10:12:38;;;;;;;3.47;1.90;;;;;;;23.58;39.08;96101.09;5022469;28;20045;-69
2022/10/05 10:15:15;;;;;;;3.42;2.08;;;;;;;23.63;38.81;96103.13;5015686;28;20030;-69
2022/10/05 10:18:08;;;;;;;5.10;2.08;;;;;;;23.85;38.57;96098.59;5018515;28;20033;-70
2022/10/05 10:21:11;;;;;;;6.03;1.83;;;;;;;23.84;38.17;96096.34;5024807;28;20364;-69
2022/10/05 10:23:59;;;;;;;6.97;2.15;;;;;;;23.85;38.15;96108.78;5016348;28;20217;-70
2022/10/05 10:26:24;;;;;;;5.93;2.22;;;;;;;23.82;38.53;96098.84;5022611;28;20057;-70
2022/10/05 10:28:59;;;;;;;4.05;2.08;;;;;;;23.86;38.50;96104.81;5023477;28;20440;-69
2022/10/05 10:31:48;;;;;;;9.85;2.00;;;;;;;23.93;38.04;96094.94;5023932;28;20041;-74
2022/10/05 10:34:51;;;;;;;7.47;2.03;;;;;;;23.86;38.15;96091.19;5007303;28;20546;-74
2022/10/05 10:37:38;;;;;;;4.10;1.67;;;;;;;23.59;38.16;96058.97;5025539;28;20133;-70
2022/10/05 10:40:19;;;;;;;6.90;2.22;;;;;;;23.73;38.67;96069.00;5017216;28;20049;-74
2022/10/05 10:42:53;;;;;;;5.32;1.95;;;;;;;23.81;38.16;96083.69;5006507;28;20034;-73
2022/10/05 10:45:19;;;;;;;4.00;1.92;;;;;;;23.89;37.94;96071.84;5001015;28;20170;-70
2022/10/05 10:47:55;;;;;;;4.20;2.08;;;;;;;23.88;38.13;96076.56;5019414;28;20112;-71
2022/10/05 10:50:42;;;;;;;5.63;2.05;;;;;;;23.82;37.80;96071.56;5007033;28;20057;-75
2022/10/05 10:53:40;;;;;;;4.22;2.28;;;;;;;23.97;37.50;96067.44;5024037;28;20069;-76
2022/10/05 10:56:24;;;;;;;8.82;2.13;;;;;;;23.90;37.85;96074.09;4996982;28;20543;-70
2022/10/05 10:59:27;;;;;;;6.45;2.25;;;;;;;23.93;37.89;96070.38;5021745;28;20133;-73
2022/10/05 11:02:23;;;;;;;4.85;1.70;;;;;;;23.85;37.88;96070.59;5018987;28;20048;-69
2022/10/05 11:05:04;;;;;;;4.63;2.08;;;;;;;23.89;38.20;96067.13;4995257;28;20136;-68
2022/10/05 11:07:38;;;;;;;5.55;2.15;;;;;;;23.93;38.04;96056.75;5021850;28;20116;-76
2022/10/05 11:10:17;;;;;;;4.50;2.10;;;;;;;23.97;37.51;96045.59;5025121;28;20057;-72
2022/10/05 11:13:04;;;;;;;6.25;2.05;;;;;;;23.98;37.73;96036.94;5022662;28;20076;-72
2022/10/05 11:15:44;;;;;;;3.95;1.70;;;;;;;24.02;37.42;96037.44;5025010;28;20060;-73
2022/10/05 11:18:18;;;;;;;4.82;1.83;;;;;;;23.99;37.60;96043.13;5022016;28;20052;-75
2022/10/05 11:21:18;;;;;;;4.22;1.75;;;;;;;24.04;37.48;96032.25;5025711;28;20108;-72
2022/10/05 11:24:11;;;;;;;4.60;1.90;;;;;;;23.98;37.54;96026.00;5025691;28;20063;-74
2022/10/05 11:26:58;;;;;;;3.03;1.60;;;;;;;24.09;37.18;96025.31;4996368;28;20076;-71
2022/10/05 11:30:14;;;;;;;3.60;1.60;;;;;;;23.59;36.84;95949.91;5010974;28;20132;-70
2022/10/05 11:33:18;;;;;;;4.32;1.63;;;;;;;24.08;37.40;96035.50;4957014;28;20060;-70
2022/10/05 11:35:46;;;;;;;2.78;1.60;;;;;;;24.04;37.35;96018.59;5018308;28;20044;-69
2022/10/05 11:38:20;;;;;;;4.18;1.95;;;;;;;24.07;37.03;96017.63;5024630;28;20063;-72
2022/10/05 11:41:12;;;;;;;4.22;2.03;;;;;;;24.16;37.50;96024.88;5028359;28;20041;-71
2022/10/05 11:43:49;;;;;;;4.03;1.50;;;;;;;24.26;36.98;96017.94;5006967;28;20065;-69
2022/10/05 11:46:40;;;;;;;3.45;1.30;;;;;;;24.09;36.51;95982.38;5025439;28;20572;-70
2022/10/05 11:49:20;;;;;;;2.50;1.30;;;;;;;24.30;36.64;96030.13;5014001;28;20542;-76
2022/10/05 11:51:48;;;;;;;4.22;1.40;;;;;;;24.33;36.05;96012.78;5027707;28;20047;-71
2022/10/05 11:54:17;;;;;;;3.20;1.50;;;;;;;24.31;36.58;96015.25;5028227;28;20182;-72
2022/10/05 11:56:51;;;;;;;1.90;1.20;;;;;;;24.34;36.24;96003.38;5010532;28;20477;-71
2022/10/05 11:59:29;;;;;;;4.18;1.98;;;;;;;23.74;36.11;95912.34;5028109;28;20049;-72
2022/10/05 12:02:13;;;;;;;2.92;1.60;;;;;;;24.30;36.00;95989.16;4993331;28;20463;-69
2022/10/05 12:05:03;;;;;;;2.10;1.25;;;;;;;24.19;36.87;95994.59;5025268;28;20045;-73
2022/10/05 12:07:42;;;;;;;3.33;1.30;;;;;;;24.04;36.66;95991.31;5026979;28;20041;-71
2022/10/05 12:10:27;;;;;;;3.28;1.40;;;;;;;23.87;36.70;95965.94;4977586;28;20048;-71
2022/10/05 12:13:17;;;;;;;3.45;1.50;;;;;;;23.92;36.62;95965.22;5022087;28;20038;-75
2022/10/05 12:15:43;;;;;;;3.33;1.50;;;;;;;24.20;36.91;95990.66;4994306;28;20041;-72
2022/10/05 12:18:38;;;;;;;2.88;1.40;;;;;;;24.47;36.90;95995.47;5026528;28;20044;-72
2022/10/05 12:21:04;;;;;;;2.47;1.40;;;;;;;23.66;35.81;95884.00;4997987;28;20034;-72
2022/10/05 12:23:33;;;;;;;2.75;1.30;;;;;;;24.35;36.01;95961.19;5005942;28;20469;-74
2022/10/05 12:26:23;;;;;;;2.03;1.33;;;;;;;24.56;36.21;95970.66;5010062;28;20042;-71
2022/10/05 12:28:52;;;;;;;4.25;1.67;;;;;;;24.58;36.37;95984.56;4992309;28;20114;-71
2022/10/05 12:31:35;;;;;;;2.75;1.50;;;;;;;24.72;35.98;95994.53;4998900;28;20034;-71
2022/10/05 12:34:03;;;;;;;2.47;1.40;;;;;;;24.69;36.07;95984.59;5003592;28;20444;-71
2022/10/05 12:36:41;;;;;;;2.15;1.10;;;;;;;24.83;35.79;95995.28;5008964;28;20033;-71
2022/10/05 12:39:26;;;;;;;3.13;1.33;;;;;;;24.95;35.54;95997.53;5018583;28;20064;-68
2022/10/05 12:42:04;;;;;;;2.97;1.20;;;;;;;24.77;35.37;95914.53;5001943;28;20050;-71